createdAt,value
2022-08-26T00:00:53.320Z,82.00
2022-08-26T00:03:21.627Z,82.00
2022-08-26T00:05:50.997Z,82.10
2022-08-26T00:08:21.135Z,82.20
2022-08-26T00:10:49.553Z,82.30
2022-08-26T00:13:19.512Z,82.70
2022-08-26T00:15:51.161Z,83.70
2022-08-26T00:18:22.313Z,84.40
2022-08-26T00:20:51.491Z,84.00
2022-08-26T00:23:20.376Z,84.40
2022-08-26T00:25:54.806Z,85.00
2022-08-26T00:28:25.460Z,85.20
2022-08-26T00:30:55.372Z,85.80
2022-08-26T00:33:24.145Z,86.00
2022-08-26T00:35:52.237Z,86.00
2022-08-26T00:38:22.232Z,85.50
2022-08-26T00:40:53.716Z,85.40
2022-08-26T00:43:23.311Z,85.60
2022-08-26T00:45:59.133Z,85.30
2022-08-26T00:48:31.940Z,85.60
2022-08-26T00:51:04.019Z,85.50
2022-08-26T00:53:38.016Z,85.80
2022-08-26T00:56:14.852Z,86.00
2022-08-26T00:58:45.336Z,85.90
2022-08-26T01:01:15.526Z,86.30
2022-08-26T01:03:45.584Z,86.60
2022-08-26T01:06:14.549Z,86.50
2022-08-26T01:08:42.955Z,86.80
2022-08-26T01:11:12.465Z,87.20
2022-08-26T01:13:43.401Z,87.10
2022-08-26T01:16:16.180Z,87.30
2022-08-26T01:18:46.773Z,86.90
2022-08-26T01:21:19.026Z,86.70
2022-08-26T01:23:57.301Z,86.90
2022-08-26T01:26:30.715Z,87.30
2022-08-26T01:29:01.329Z,87.70
2022-08-26T01:31:33.698Z,87.80
2022-08-26T01:34:06.777Z,87.50
2022-08-26T01:36:40.720Z,87.70
2022-08-26T01:39:11.728Z,88.30
2022-08-26T01:41:44.152Z,88.40
2022-08-26T01:44:20.779Z,89.10
2022-08-26T01:46:51.490Z,88.60
2022-08-26T01:49:20.524Z,89.70
2022-08-26T01:51:51.439Z,89.50
2022-08-26T01:54:23.112Z,90.00
2022-08-26T01:56:52.543Z,90.20
2022-08-26T01:59:25.188Z,90.40
2022-08-26T02:01:54.263Z,90.30
2022-08-26T02:04:27.104Z,89.80
2022-08-26T02:06:56.835Z,90.20
2022-08-26T02:09:26.844Z,90.60
2022-08-26T02:11:55.883Z,91.90
2022-08-26T02:14:27.206Z,92.70
2022-08-26T02:16:56.250Z,92.60
2022-08-26T02:19:30.492Z,92.60
2022-08-26T02:22:01.355Z,92.50
2022-08-26T02:24:49.019Z,92.40
2022-08-26T02:27:19.383Z,92.60
2022-08-26T02:29:52.015Z,93.60
2022-08-26T02:32:20.411Z,93.10
2022-08-26T02:34:48.479Z,93.10
2022-08-26T02:37:17.742Z,93.30
2022-08-26T02:39:48.026Z,94.50
2022-08-26T02:42:16.178Z,94.30
2022-08-26T02:44:44.267Z,94.60
2022-08-26T02:47:14.735Z,94.30
2022-08-26T02:49:44.350Z,95.10
2022-08-26T02:52:17.922Z,95.20
2022-08-26T02:54:47.571Z,95.60
2022-08-26T02:57:17.991Z,95.80
2022-08-26T02:59:46.141Z,96.60
2022-08-26T03:02:17.322Z,96.30
2022-08-26T03:04:57.787Z,97.20
2022-08-26T03:07:30.272Z,96.30
2022-08-26T03:10:01.757Z,96.80
2022-08-26T03:12:37.246Z,96.70
2022-08-26T03:15:16.487Z,96.50
2022-08-26T03:17:46.710Z,96.30
2022-08-26T03:20:15.771Z,96.00
2022-08-26T03:22:46.535Z,96.70
2022-08-26T03:25:17.622Z,96.10
2022-08-26T03:27:45.858Z,95.60
2022-08-26T03:30:32.873Z,96.40
2022-08-26T03:33:01.640Z,96.70
2022-08-26T03:35:31.191Z,96.40
2022-08-26T03:37:59.773Z,95.90
2022-08-26T03:40:33.723Z,95.70
2022-08-26T03:43:02.412Z,95.80
2022-08-26T03:45:30.517Z,96.20
2022-08-26T03:47:58.617Z,96.00
2022-08-26T03:50:27.039Z,96.30
2022-08-26T03:52:56.199Z,96.80
2022-08-26T03:55:27.014Z,96.60
2022-08-26T03:57:56.787Z,96.20
2022-08-26T04:00:26.011Z,95.60
2022-08-26T04:02:54.240Z,95.90
2022-08-26T04:05:23.398Z,95.80
2022-08-26T04:07:51.805Z,95.70
2022-08-26T04:10:28.601Z,96.20
2022-08-26T04:12:59.218Z,96.00
2022-08-26T04:15:28.179Z,96.10
2022-08-26T04:17:57.298Z,96.40
2022-08-26T04:20:26.132Z,96.10
2022-08-26T04:22:54.591Z,96.30
2022-08-26T04:25:22.695Z,96.20
2022-08-26T04:27:52.764Z,96.30
2022-08-26T04:30:22.789Z,96.50
2022-08-26T04:32:52.121Z,96.30
2022-08-26T04:35:25.633Z,96.50
2022-08-26T04:37:55.286Z,96.20
2022-08-26T04:40:24.147Z,96.20
2022-08-26T04:42:56.744Z,96.00
2022-08-26T04:45:27.300Z,95.40
2022-08-26T04:47:56.830Z,94.90
2022-08-26T04:50:26.933Z,94.60
2022-08-26T04:52:55.589Z,94.10
2022-08-26T04:55:28.288Z,93.40
2022-08-26T04:58:08.756Z,93.10
2022-08-26T05:00:40.317Z,92.70
2022-08-26T05:03:10.399Z,92.10
2022-08-26T05:05:41.157Z,91.40
2022-08-26T05:08:10.022Z,91.10
2022-08-26T05:10:44.358Z,90.40
2022-08-26T05:13:15.602Z,90.00
2022-08-26T05:15:46.157Z,89.70
2022-08-26T05:18:20.002Z,89.50
2022-08-26T05:20:51.314Z,88.70
2022-08-26T05:23:23.500Z,88.30
2022-08-26T05:25:58.389Z,87.60
2022-08-26T05:28:31.252Z,87.50
2022-08-26T05:31:01.543Z,87.10
2022-08-26T05:33:32.041Z,86.30
2022-08-26T05:36:06.798Z,85.60
2022-08-26T05:38:35.258Z,85.40
2022-08-26T05:41:03.637Z,84.60
2022-08-26T05:43:31.793Z,84.10
2022-08-26T05:46:07.903Z,83.30
2022-08-26T05:48:39.109Z,82.50
2022-08-26T05:51:13.104Z,82.20
2022-08-26T05:53:54.478Z,81.40
2022-08-26T05:56:27.574Z,81.20
2022-08-26T05:58:58.578Z,81.00
2022-08-26T06:01:31.850Z,80.90
2022-08-26T06:04:04.579Z,80.60
2022-08-26T06:06:35.723Z,80.30
2022-08-26T06:09:07.098Z,79.60
2022-08-26T06:11:40.175Z,79.60
2022-08-26T06:14:09.043Z,79.30
2022-08-26T06:16:41.194Z,78.90
2022-08-26T06:19:11.763Z,78.60
2022-08-26T06:21:43.607Z,77.90
2022-08-26T06:24:32.485Z,77.40
2022-08-26T06:27:02.746Z,77.70
2022-08-26T06:29:33.022Z,76.90
2022-08-26T06:32:04.017Z,76.30
2022-08-26T06:34:32.677Z,76.20
2022-08-26T06:37:03.483Z,76.10
2022-08-26T06:39:32.292Z,75.80
2022-08-26T06:42:00.862Z,75.80
2022-08-26T06:44:34.796Z,75.90
2022-08-26T06:47:04.370Z,76.10
2022-08-26T06:49:32.664Z,76.50
2022-08-26T06:52:00.691Z,77.20
2022-08-26T06:54:31.717Z,77.40
2022-08-26T06:57:00.100Z,77.20
2022-08-26T06:59:28.330Z,77.20
2022-08-26T07:01:56.543Z,76.70
2022-08-26T07:04:28.856Z,76.20
2022-08-26T07:06:57.610Z,75.80
2022-08-26T07:09:27.778Z,75.40
2022-08-26T07:11:57.401Z,75.80
2022-08-26T07:14:26.191Z,75.60
2022-08-26T07:16:55.669Z,75.10
2022-08-26T07:19:29.825Z,75.10
2022-08-26T07:22:01.755Z,74.40
2022-08-26T07:24:31.105Z,73.90
2022-08-26T07:27:01.951Z,73.60
2022-08-26T07:29:33.506Z,72.80
2022-08-26T07:32:02.708Z,72.80
2022-08-26T07:34:33.411Z,72.50
2022-08-26T07:37:02.185Z,72.30
2022-08-26T07:39:31.421Z,72.90
2022-08-26T07:42:00.338Z,72.50
2022-08-26T07:44:30.344Z,72.30
2022-08-26T07:46:59.430Z,72.30
2022-08-26T07:49:28.171Z,71.80
2022-08-26T07:51:57.701Z,72.20
2022-08-26T07:54:27.107Z,71.50
2022-08-26T07:56:56.336Z,71.20
2022-08-26T07:59:25.027Z,70.90
2022-08-26T08:01:53.939Z,70.70
2022-08-26T08:04:26.080Z,69.60
2022-08-26T08:06:55.528Z,69.40
2022-08-26T08:09:25.569Z,68.50
2022-08-26T08:11:54.285Z,67.60
2022-08-26T08:14:22.509Z,66.90
2022-08-26T08:16:54.855Z,67.00
2022-08-26T08:19:23.947Z,66.80
2022-08-26T08:22:01.179Z,65.80
2022-08-26T08:24:32.166Z,65.50
2022-08-26T08:27:00.875Z,64.90
2022-08-26T08:29:30.563Z,64.20
2022-08-26T08:32:00.224Z,62.70
2022-08-26T08:34:30.015Z,62.10
2022-08-26T08:36:58.749Z,61.40
2022-08-26T08:39:28.247Z,61.70
2022-08-26T08:42:27.918Z,62.10
2022-08-26T08:45:00.333Z,61.30
2022-08-26T08:47:33.844Z,60.80
2022-08-26T08:50:13.007Z,59.90
2022-08-26T08:52:44.630Z,59.70
2022-08-26T08:55:18.248Z,59.20
2022-08-26T08:58:01.996Z,59.20
2022-08-26T09:00:39.793Z,58.30
2022-08-26T09:03:19.948Z,58.90
2022-08-26T09:05:51.551Z,58.50
2022-08-26T09:08:27.493Z,58.30
2022-08-26T09:10:59.554Z,57.80
2022-08-26T09:13:31.819Z,57.30
2022-08-26T09:16:08.317Z,57.60
2022-08-26T09:18:56.577Z,57.20
2022-08-26T09:21:25.724Z,57.00
2022-08-26T09:23:56.613Z,57.10
2022-08-26T09:26:29.663Z,56.40
2022-08-26T09:29:02.591Z,56.20
2022-08-26T09:31:34.113Z,55.80
2022-08-26T09:34:17.356Z,56.40
2022-08-26T09:36:48.583Z,56.60
2022-08-26T09:39:30.320Z,56.20
2022-08-26T09:42:11.090Z,55.80
2022-08-26T09:44:59.385Z,56.00
2022-08-26T09:47:31.678Z,55.80
2022-08-26T09:50:09.467Z,54.40
2022-08-26T09:52:40.529Z,54.10
2022-08-26T09:55:15.642Z,54.10
2022-08-26T09:57:51.396Z,54.20
2022-08-26T10:00:28.989Z,52.80
2022-08-26T10:02:58.246Z,52.20
2022-08-26T10:05:39.742Z,52.40
2022-08-26T10:08:24.254Z,51.50
2022-08-26T10:10:53.526Z,51.40
2022-08-26T10:13:28.128Z,51.10
2022-08-26T10:16:07.133Z,51.50
2022-08-26T10:18:43.057Z,51.00
2022-08-26T10:21:17.831Z,50.00
2022-08-26T10:23:51.275Z,48.80
2022-08-26T10:26:26.366Z,49.20
2022-08-26T10:29:01.323Z,49.20
2022-08-26T10:31:40.126Z,49.50
2022-08-26T10:34:09.535Z,48.90
2022-08-26T10:37:13.857Z,48.50
2022-08-26T10:39:46.244Z,48.80
2022-08-26T10:42:20.395Z,48.30
2022-08-26T10:44:52.345Z,48.10
2022-08-26T10:47:25.572Z,48.30
2022-08-26T10:49:58.698Z,48.20
2022-08-26T10:52:42.829Z,47.90
2022-08-26T10:55:17.759Z,47.70
2022-08-26T10:57:57.217Z,47.30
2022-08-26T11:00:49.627Z,47.10
2022-08-26T11:03:38.811Z,47.50
2022-08-26T11:06:24.627Z,48.30
2022-08-26T11:08:54.046Z,46.90
2022-08-26T11:11:46.921Z,46.70
2022-08-26T11:14:53.114Z,46.40
2022-08-26T11:17:57.007Z,46.50
2022-08-26T11:20:41.600Z,45.70
2022-08-26T11:23:50.482Z,45.70
2022-08-26T11:26:30.046Z,44.50
2022-08-26T11:29:04.956Z,44.40
2022-08-26T11:31:56.401Z,43.00
2022-08-26T11:34:54.072Z,42.70
2022-08-26T11:37:27.463Z,42.20
2022-08-26T11:39:56.888Z,42.60
2022-08-26T11:42:33.252Z,43.00
2022-08-26T11:45:18.168Z,43.00
2022-08-26T11:47:46.856Z,43.00
2022-08-26T11:50:21.499Z,43.30
2022-08-26T11:53:02.376Z,42.70
2022-08-26T11:55:31.836Z,42.10
2022-08-26T11:58:01.978Z,41.60
2022-08-26T12:00:36.022Z,41.40
2022-08-26T12:03:09.452Z,41.50
2022-08-26T12:05:44.989Z,41.30
2022-08-26T12:08:21.453Z,40.90
2022-08-26T12:11:03.415Z,40.30
2022-08-26T12:13:31.977Z,40.10
2022-08-26T12:16:01.511Z,39.90
2022-08-26T12:18:33.001Z,39.70
2022-08-26T12:21:12.249Z,39.80
2022-08-26T12:23:47.310Z,39.90
2022-08-26T12:26:23.399Z,40.00
2022-08-26T12:28:55.507Z,39.90
2022-08-26T12:31:32.327Z,40.90
2022-08-26T12:34:04.111Z,42.60
2022-08-26T12:36:36.159Z,43.70
2022-08-26T12:39:10.500Z,42.70
2022-08-26T12:41:51.050Z,42.10
2022-08-26T12:44:54.159Z,41.30
2022-08-26T12:47:31.004Z,39.50
2022-08-26T12:50:18.116Z,40.80
2022-08-26T12:52:57.076Z,42.40
2022-08-26T12:55:36.451Z,42.50
2022-08-26T12:58:24.435Z,42.30
2022-08-26T13:00:56.105Z,41.70
2022-08-26T13:03:43.271Z,41.40
2022-08-26T13:06:25.810Z,41.40
2022-08-26T13:08:55.747Z,41.00
2022-08-26T13:11:31.530Z,40.70
2022-08-26T13:14:07.257Z,39.70
2022-08-26T13:16:36.571Z,39.90
2022-08-26T13:19:10.378Z,39.50
2022-08-26T13:21:47.718Z,40.20
2022-08-26T13:24:18.942Z,39.30
2022-08-26T13:26:50.313Z,39.50
2022-08-26T13:29:20.766Z,40.20
2022-08-26T13:31:49.051Z,39.80
2022-08-26T13:34:20.436Z,39.70
2022-08-26T13:36:49.536Z,40.40
2022-08-26T13:39:18.108Z,40.90
2022-08-26T13:41:46.336Z,40.90
2022-08-26T13:44:15.862Z,44.90
2022-08-26T13:49:17.230Z,49.00
2022-08-26T13:51:45.389Z,52.60
2022-08-26T13:54:14.566Z,53.90
2022-08-26T13:56:42.766Z,55.90
2022-08-26T13:59:11.470Z,62.50
2022-08-26T14:01:40.961Z,69.40
2022-08-26T14:04:09.075Z,73.90
2022-08-26T14:06:37.425Z,99.60
2022-08-26T14:09:06.672Z,99.90
2022-08-26T14:11:54.241Z,99.90
2022-08-26T14:14:23.155Z,99.90
2022-08-26T14:17:00.186Z,99.90
2022-08-26T14:19:30.292Z,99.90
2022-08-26T14:21:58.803Z,99.90
2022-08-26T14:24:27.527Z,99.90
2022-08-26T14:26:55.615Z,99.90
2022-08-26T14:29:23.783Z,99.90
2022-08-26T14:31:54.495Z,99.90
2022-08-26T14:34:22.698Z,99.90
2022-08-26T14:36:50.739Z,99.90
2022-08-26T14:39:18.837Z,99.90
2022-08-26T14:41:53.805Z,99.90
2022-08-26T14:44:25.730Z,99.90
2022-08-26T14:46:56.305Z,99.90
2022-08-26T14:49:27.206Z,99.90
2022-08-26T14:51:56.356Z,99.90
2022-08-26T14:54:23.484Z,99.90
2022-08-26T14:56:53.896Z,99.90
2022-08-26T14:59:25.108Z,99.90
2022-08-26T15:01:55.450Z,99.90
2022-08-26T15:04:26.358Z,99.90
2022-08-26T15:06:56.279Z,99.90
2022-08-26T15:09:25.271Z,99.90
2022-08-26T15:11:54.058Z,99.90
2022-08-26T15:14:23.381Z,99.90
2022-08-26T15:16:57.390Z,99.90
2022-08-26T15:19:26.972Z,99.90
2022-08-26T15:21:55.455Z,99.90
2022-08-26T15:24:26.682Z,99.90
2022-08-26T15:26:54.818Z,99.90
2022-08-26T15:29:24.227Z,99.90
2022-08-26T15:31:52.490Z,99.90
2022-08-26T15:34:27.092Z,99.90
2022-08-26T15:36:55.482Z,99.90
2022-08-26T15:39:23.652Z,99.90
2022-08-26T15:41:52.114Z,99.90
2022-08-26T15:44:21.635Z,99.90
2022-08-26T15:46:58.810Z,99.90
2022-08-26T15:49:28.759Z,99.90
2022-08-26T15:51:57.151Z,99.90
2022-08-26T15:54:26.486Z,99.90
2022-08-26T15:56:54.596Z,99.90
2022-08-26T15:59:25.396Z,99.90
2022-08-26T16:01:53.600Z,99.90
2022-08-26T16:04:22.145Z,99.90
2022-08-26T16:06:52.622Z,99.90
2022-08-26T16:09:22.841Z,99.90
2022-08-26T16:11:52.031Z,99.90
2022-08-26T16:14:20.227Z,99.90
2022-08-26T16:16:48.340Z,99.90
2022-08-26T16:19:16.570Z,99.90
2022-08-26T16:21:45.019Z,99.90
2022-08-26T16:24:15.313Z,99.90
2022-08-26T16:26:45.295Z,99.90
2022-08-26T16:29:15.308Z,99.90
2022-08-26T16:31:44.019Z,99.90
2022-08-26T16:34:12.585Z,99.90
2022-08-26T16:36:40.921Z,99.90
2022-08-26T16:39:10.069Z,99.90
2022-08-26T16:41:39.677Z,99.90
2022-08-26T16:44:08.746Z,99.90
2022-08-26T16:46:37.158Z,99.90
2022-08-26T16:49:05.383Z,99.90
2022-08-26T16:51:38.025Z,99.90
2022-08-26T16:54:08.083Z,99.90
2022-08-26T16:56:36.555Z,99.90
2022-08-26T16:59:07.928Z,99.90
2022-08-26T17:01:36.146Z,99.90
2022-08-26T17:04:05.184Z,99.90
2022-08-26T17:06:34.120Z,99.90
2022-08-26T17:09:02.344Z,99.90
2022-08-26T17:11:30.921Z,99.90
2022-08-26T17:13:59.341Z,99.90
2022-08-26T17:16:29.379Z,99.90
2022-08-26T17:18:58.015Z,99.90
2022-08-26T17:21:30.340Z,99.90
2022-08-26T17:23:58.479Z,99.90
2022-08-26T17:26:27.147Z,99.90
2022-08-26T17:28:56.072Z,99.90
2022-08-26T17:31:24.779Z,99.90
2022-08-26T17:33:55.486Z,99.90
2022-08-26T17:36:27.667Z,99.90
2022-08-26T17:38:57.967Z,99.90
2022-08-26T17:41:26.976Z,99.90
2022-08-26T17:43:55.928Z,99.90
2022-08-26T17:46:24.749Z,99.90
2022-08-26T17:48:54.659Z,99.90
2022-08-26T17:51:23.533Z,99.90
2022-08-26T17:53:53.228Z,99.90
2022-08-26T17:56:25.433Z,99.90
2022-08-26T17:58:54.664Z,99.90
2022-08-26T18:01:26.702Z,99.90
2022-08-26T18:04:00.379Z,99.90
2022-08-26T18:06:30.222Z,99.90
2022-08-26T18:08:58.395Z,99.90
2022-08-26T18:11:27.073Z,99.90
2022-08-26T18:13:55.203Z,99.90
2022-08-26T18:16:23.325Z,99.90
2022-08-26T18:18:53.513Z,99.90
2022-08-26T18:21:25.601Z,99.90
2022-08-26T18:23:54.601Z,99.90
2022-08-26T18:26:25.320Z,99.90
2022-08-26T18:28:54.012Z,99.90
2022-08-26T18:31:22.588Z,99.90
2022-08-26T18:33:51.301Z,99.90
2022-08-26T18:36:24.928Z,99.90
2022-08-26T18:38:54.029Z,99.90
2022-08-26T18:41:24.303Z,99.90
2022-08-26T18:43:54.050Z,99.90
2022-08-26T18:46:24.939Z,99.90
2022-08-26T18:48:53.616Z,99.90
2022-08-26T18:51:25.640Z,99.90
2022-08-26T18:53:54.109Z,99.90
2022-08-26T18:56:22.336Z,99.90
2022-08-26T18:58:50.534Z,99.90
2022-08-26T19:01:22.365Z,99.90
2022-08-26T19:03:55.379Z,99.90
2022-08-26T19:06:25.819Z,99.90
2022-08-26T19:08:54.889Z,99.90
2022-08-26T19:11:30.181Z,99.90
2022-08-26T19:14:02.436Z,99.90
2022-08-26T19:16:31.614Z,99.90
2022-08-26T19:19:01.435Z,99.90
2022-08-26T19:21:34.665Z,99.90
2022-08-26T19:24:05.531Z,99.90
2022-08-26T19:26:34.936Z,99.90
2022-08-26T19:29:04.019Z,99.90
2022-08-26T19:31:47.880Z,99.90
2022-08-26T19:34:20.735Z,99.90
2022-08-26T19:36:53.476Z,99.90
2022-08-26T19:39:22.428Z,99.90
2022-08-26T19:41:53.411Z,99.90
2022-08-26T19:44:41.651Z,99.90
2022-08-26T19:47:11.638Z,99.90
2022-08-26T19:49:40.158Z,99.90
2022-08-26T19:52:11.015Z,99.90
2022-08-26T19:54:39.565Z,99.90
2022-08-26T19:57:10.002Z,99.90
2022-08-26T19:59:40.394Z,99.90
2022-08-26T20:02:11.117Z,99.90
2022-08-26T20:04:40.994Z,99.90
2022-08-26T20:07:14.183Z,99.90
2022-08-26T20:09:46.471Z,99.90
2022-08-26T20:12:15.373Z,99.90
2022-08-26T20:14:43.909Z,99.90
2022-08-26T20:17:12.484Z,99.90
2022-08-26T20:19:58.403Z,99.90
2022-08-26T20:22:28.140Z,99.90
2022-08-26T20:24:56.289Z,99.90
2022-08-26T20:27:27.692Z,99.90
2022-08-26T20:30:09.305Z,99.90
2022-08-26T20:32:38.381Z,99.90
2022-08-26T20:35:08.212Z,99.90
2022-08-26T20:37:38.550Z,99.90
2022-08-26T20:40:08.966Z,99.90
2022-08-26T20:42:37.563Z,99.90
2022-08-26T20:45:06.623Z,99.90
2022-08-26T20:47:35.192Z,99.90
2022-08-26T20:50:03.726Z,99.90
2022-08-26T20:52:32.233Z,99.90
2022-08-26T20:55:01.740Z,99.90
2022-08-26T20:57:29.843Z,99.90
2022-08-26T20:59:57.986Z,99.90
2022-08-26T21:02:26.144Z,99.90
2022-08-26T21:04:57.598Z,99.90
2022-08-26T21:07:26.304Z,99.90
2022-08-26T21:09:54.637Z,99.90
2022-08-26T21:12:24.060Z,99.90
2022-08-26T21:14:52.157Z,99.90
2022-08-26T21:17:20.262Z,99.90
2022-08-26T21:19:48.361Z,99.90
2022-08-26T21:22:16.600Z,99.90
2022-08-26T21:24:44.754Z,99.90
2022-08-26T21:27:13.068Z,99.90
2022-08-26T21:29:49.091Z,99.90
2022-08-26T21:32:20.276Z,99.90
2022-08-26T21:34:48.346Z,99.90
2022-08-26T21:37:17.068Z,99.90
2022-08-26T21:39:45.372Z,99.90
2022-08-26T21:42:13.833Z,99.90
2022-08-26T21:44:43.390Z,99.90
2022-08-26T21:47:15.988Z,99.90
2022-08-26T21:49:44.333Z,99.90
2022-08-26T21:52:12.796Z,99.90
2022-08-26T21:54:40.969Z,99.90
2022-08-26T21:57:20.057Z,99.90
2022-08-26T21:59:48.233Z,99.90
2022-08-26T22:02:19.475Z,99.90
2022-08-26T22:04:48.998Z,99.90
2022-08-26T22:07:19.018Z,99.90
2022-08-26T22:09:47.315Z,99.90
2022-08-26T22:12:18.052Z,99.90
2022-08-26T22:14:46.987Z,99.90
2022-08-26T22:17:16.525Z,99.90
2022-08-26T22:19:46.820Z,99.90
2022-08-26T22:22:15.470Z,99.90
2022-08-26T22:24:44.296Z,99.90
2022-08-26T22:27:12.965Z,99.90
2022-08-26T22:29:41.688Z,99.90
2022-08-26T22:32:11.168Z,99.90
2022-08-26T22:34:39.465Z,99.90
2022-08-26T22:37:09.285Z,99.90
2022-08-26T22:39:37.675Z,99.90
2022-08-26T22:42:05.976Z,99.90
2022-08-26T22:44:36.489Z,99.90
2022-08-26T22:47:05.054Z,99.90
2022-08-26T22:49:33.244Z,99.90
2022-08-26T22:52:04.373Z,99.90
2022-08-26T22:54:33.895Z,99.90
2022-08-26T22:57:02.330Z,99.90
2022-08-26T22:59:30.546Z,99.90
2022-08-26T23:01:58.668Z,99.90
2022-08-26T23:04:29.103Z,99.90
2022-08-26T23:07:03.157Z,99.90
2022-08-26T23:09:43.073Z,99.90
2022-08-26T23:12:23.789Z,99.90
2022-08-26T23:15:02.789Z,99.90
2022-08-26T23:17:46.114Z,99.90
2022-08-26T23:20:26.495Z,99.90
2022-08-26T23:23:03.542Z,99.90
2022-08-26T23:25:53.311Z,99.90
2022-08-26T23:28:30.787Z,99.90
2022-08-26T23:31:04.137Z,99.90
2022-08-26T23:33:48.943Z,99.90
2022-08-26T23:36:26.256Z,99.90
2022-08-26T23:38:58.052Z,99.90
2022-08-26T23:41:40.419Z,99.90
2022-08-26T23:44:09.205Z,99.90
2022-08-26T23:46:37.554Z,99.90
2022-08-26T23:49:05.885Z,99.90
2022-08-26T23:51:51.298Z,99.90
2022-08-26T23:54:19.920Z,99.90
2022-08-26T23:56:49.451Z,99.90
2022-08-26T23:59:17.627Z,99.90
